Airfield :
LOGIN :

Register | Disclaimer

   EN    FR    IT 

 










Legend :    VFR   Marginal VFR   IFR   Intensive IFR   Very Intensive IFR
Visi :
Ceiling :
>= 8 km
>= 3000ft
5 to 8 km
1000 to 3000 ft
1500m to 5 km
500 to 1000 ft
800 to 1500m
200 to 500 ft
< 800m
< 200 ft
Symbols :   Thunderstorms  Fog  Heavy snow  Heavy precipitations  Wind > 20 kt
SIGMETs :     Misc.  Thunderstorms  Icing  Turbulence  Mountain Waves  Volcanic Ashes






- Airport Elevation : 640 ft
- IATA code : AOC


EDAC - Altenburg-Nobitz

CURRENT METAR :
  • 162020Z AUTO VRB01KT 9999 // SCT078/// OVC090/// 17/12 Q1010

EXPIRED METARs :
  • 161950Z AUTO 16003KT 9999 // BKN100/// BKN120/// OVC210/// 18/12 Q1010
  • 161920Z AUTO 14003KT 9999 // OVC120/// 18/12 Q1010
  • 161850Z AUTO 15002KT 9999 // BKN120/// 19/12 Q1010
  • 161820Z AUTO 23005KT 9999 // FEW130/// 19/10 Q1010
  • 161750Z AUTO 23007KT 9999 // NCD 21/10 Q1009
  • 161720Z AUTO 23008KT 9999 // FEW086/// 23/10 Q1009
  • 161650Z 26008KT CAVOK 23/10 Q1009
  • 161620Z 24009KT 9999 22/09 Q1009
  • 161550Z 24009KT CAVOK 22/09 Q1009

TAF TAF EDAC
Valid from the 16 at 18:00 until the 17 at 03:00 UTC


161700Z 1618/1703 23008KT CAVOK
BECMG 1618/1620 17004KT



MET'MAP, your aeronautical weather chart ! - Copyright ORBIFLY December 2007 - Disclaimer

ORBIFLY MET'MAP TEAM :

Programming & Development : Alexandra Zaïnal
Original concept : Baudouin d'Aumeries
Technical & hardware support : Manuel Goepfert
Assistance : Marc-Olivier Méhu




SOURCES & CREDITS :

   NOAA